Time;durP1;ratioP1;P1;durP2;ratioP2;P2;SDS_P1;SDS_P2;PMS_P1;PMS_P2;Temp;Humidity;BMP_temperature;BMP_pressure;BME280_temperature;BME280_humidity;BME280_pressure;Samples;Min_cycle;Max_cycle;Signal;HPM_P1;HPM_P2
2020/12/08 00:01:50;;;;;;;101.45;35.03;;;3.80;99.90;;;;;;5107758;28;20130;-46
2020/12/08 00:04:16;;;;;;;88.55;34.60;;;3.80;99.90;;;;;;5087961;28;20122;-47
2020/12/08 00:06:43;;;;;;;76.97;33.45;;;3.70;99.90;;;;;;5086746;28;20118;-48
2020/12/08 00:09:08;;;;;;;82.15;33.15;;;3.60;99.90;;;;;;5087420;28;20020;-47
2020/12/08 00:11:34;;;;;;;82.85;33.70;;;3.50;99.90;;;;;;5088926;28;20040;-47
2020/12/08 00:14:00;;;;;;;85.47;36.40;;;3.50;99.90;;;;;;5106642;28;20036;-48
2020/12/08 00:16:25;;;;;;;79.45;32.85;;;3.50;99.90;;;;;;5107720;28;20028;-46
2020/12/08 00:18:51;;;;;;;83.50;33.25;;;3.50;99.90;;;;;;5098367;28;20028;-46
2020/12/08 00:21:17;;;;;;;84.00;34.50;;;3.50;99.90;;;;;;5086769;28;20035;-46
2020/12/08 00:23:44;;;;;;;82.53;33.10;;;3.60;99.90;;;;;;5096379;28;20032;-46
2020/12/08 00:26:12;;;;;;;88.18;33.15;;;3.60;99.90;;;;;;5090987;28;20044;-46
2020/12/08 00:28:39;;;;;;;84.50;34.75;;;3.50;99.90;;;;;;5106999;28;20031;-46
2020/12/08 00:31:04;;;;;;;80.65;31.17;;;3.50;99.90;;;;;;5112025;28;20455;-46
2020/12/08 00:33:30;;;;;;;84.50;32.88;;;3.40;99.90;;;;;;5111518;28;20119;-46
2020/12/08 00:35:58;;;;;;;82.93;34.20;;;3.30;99.90;;;;;;5111984;28;20032;-45
2020/12/08 00:38:25;;;;;;;96.93;36.25;;;3.20;99.90;;;;;;5101069;27;20055;-46
2020/12/08 00:40:52;;;;;;;98.60;36.55;;;3.10;99.90;;;;;;5090885;28;20112;-46
2020/12/08 00:43:17;;;;;;;100.03;37.17;;;3.10;99.90;;;;;;5106994;28;20387;-46
2020/12/08 00:45:44;;;;;;;112.22;39.15;;;3.10;99.90;;;;;;5111262;28;20051;-46
2020/12/08 00:48:10;;;;;;;124.10;39.85;;;3.10;99.90;;;;;;5111123;28;20343;-46
2020/12/08 00:50:36;;;;;;;126.03;40.90;;;3.10;99.90;;;;;;5111802;28;20039;-46
2020/12/08 00:53:01;;;;;;;124.93;40.20;;;3.10;99.90;;;;;;5105872;28;20039;-46
2020/12/08 00:55:27;;;;;;;130.63;39.53;;;3.00;99.90;;;;;;5090622;28;20111;-46
2020/12/08 00:57:54;;;;;;;103.95;37.35;;;2.90;99.90;;;;;;5100035;28;20039;-47
2020/12/08 01:00:20;;;;;;;120.55;38.95;;;3.00;99.90;;;;;;5109940;28;20389;-47
2020/12/08 01:02:46;;;;;;;121.70;40.22;;;3.00;99.90;;;;;;5110235;28;20035;-46
2020/12/08 01:05:12;;;;;;;123.80;40.47;;;3.00;99.90;;;;;;5110803;28;20130;-46
2020/12/08 01:07:44;;;;;;;132.07;40.78;;;3.00;99.90;;;;;;5108300;27;20351;-47
2020/12/08 01:10:11;;;;;;;131.70;40.20;;;3.00;99.90;;;;;;5090668;28;20469;-47
2020/12/08 01:12:38;;;;;;;131.30;40.47;;;3.00;99.90;;;;;;5100565;28;20087;-48
2020/12/08 01:15:06;;;;;;;125.85;39.90;;;2.90;99.90;;;;;;5109330;28;20036;-46
2020/12/08 01:17:33;;;;;;;160.70;42.08;;;2.90;99.90;;;;;;5110429;28;20030;-46
2020/12/08 01:19:59;;;;;;;131.80;40.22;;;2.90;99.90;;;;;;5111020;28;20102;-46
2020/12/08 01:22:24;;;;;;;141.95;41.83;;;2.90;99.90;;;;;;5110588;28;20106;-46
2020/12/08 01:24:50;;;;;;;139.20;39.85;;;2.80;99.90;;;;;;5090862;27;20111;-47
2020/12/08 01:27:16;;;;;;;189.82;45.33;;;2.80;99.90;;;;;;5094176;28;20263;-46
2020/12/08 01:29:41;;;;;;;164.43;42.22;;;2.70;99.90;;;;;;5110548;28;20378;-46
2020/12/08 01:32:07;;;;;;;152.15;42.58;;;2.60;99.90;;;;;;5109971;28;20528;-45
2020/12/08 01:34:32;;;;;;;159.65;42.42;;;2.50;99.90;;;;;;5109604;28;20042;-46
2020/12/08 01:36:58;;;;;;;177.00;44.30;;;2.60;99.90;;;;;;5110127;28;20531;-46
2020/12/08 01:39:24;;;;;;;163.40;41.40;;;2.60;99.90;;;;;;5094335;28;20031;-46
2020/12/08 01:41:55;;;;;;;151.43;42.10;;;2.60;99.90;;;;;;5093333;28;20039;-45
2020/12/08 01:44:21;;;;;;;163.90;44.72;;;2.70;99.90;;;;;;5110043;28;20036;-46
2020/12/08 01:46:46;;;;;;;175.52;43.80;;;2.80;99.90;;;;;;5110413;28;20105;-47
2020/12/08 01:49:12;;;;;;;154.55;42.00;;;2.70;99.90;;;;;;5110013;28;20049;-47
2020/12/08 01:51:39;;;;;;;144.57;39.63;;;2.60;99.90;;;;;;5110298;28;20046;-46
2020/12/08 01:54:06;;;;;;;175.95;44.92;;;2.70;99.90;;;;;;5097516;27;20050;-46
2020/12/08 01:56:31;;;;;;;178.68;43.55;;;2.70;99.90;;;;;;5089549;28;20410;-45
2020/12/08 01:58:57;;;;;;;141.45;41.00;;;2.70;99.90;;;;;;5107357;28;20114;-46
2020/12/08 02:01:23;;;;;;;159.27;42.08;;;2.60;99.90;;;;;;5109422;28;20489;-46
2020/12/08 02:03:49;;;;;;;164.43;44.53;;;2.60;99.90;;;;;;5108992;28;20031;-46
2020/12/08 02:06:15;;;;;;;179.23;43.92;;;2.70;99.90;;;;;;5108738;28;20123;-47
2020/12/08 02:08:41;;;;;;;159.10;41.58;;;2.60;99.90;;;;;;5100379;27;20459;-46
2020/12/08 02:11:07;;;;;;;213.63;45.75;;;2.60;99.90;;;;;;5088987;28;20028;-46
2020/12/08 02:13:34;;;;;;;175.80;42.78;;;2.50;99.90;;;;;;5106764;28;20019;-45
2020/12/08 02:16:00;;;;;;;153.05;42.38;;;2.50;99.90;;;;;;5109721;28;20073;-46
2020/12/08 02:18:26;;;;;;;149.65;40.33;;;2.70;99.90;;;;;;5109179;28;20035;-46
2020/12/08 02:20:57;;;;;;;155.02;39.97;;;2.70;99.90;;;;;;5109894;28;20024;-45
2020/12/08 02:23:23;;;;;;;153.38;43.33;;;2.70;99.90;;;;;;5105806;27;20028;-46
2020/12/08 02:25:59;;;;;;;148.75;39.63;;;2.70;99.90;;;;;;5089336;28;20070;-46
2020/12/08 02:28:25;;;;;;;159.95;40.55;;;2.70;99.90;;;;;;5102485;28;20030;-46
2020/12/08 02:30:51;;;;;;;150.63;40.65;;;2.80;99.90;;;;;;5100948;28;20875;-45
2020/12/08 02:33:20;;;;;;;127.82;35.88;;;2.80;99.90;;;;;;5104544;28;20031;-47
2020/12/08 02:35:46;;;;;;;133.05;37.08;;;2.80;99.90;;;;;;5109636;28;20035;-46
2020/12/08 02:38:11;;;;;;;150.05;37.72;;;2.80;99.90;;;;;;5108371;28;20062;-46
2020/12/08 02:40:37;;;;;;;133.98;36.17;;;2.80;99.90;;;;;;5109374;28;20634;-45
2020/12/08 02:43:03;;;;;;;141.13;37.67;;;2.80;99.90;;;;;;5109700;28;20438;-46
2020/12/08 02:45:48;;;;;;;137.13;36.13;;;2.80;99.90;;;;;;5108231;28;20062;-46
2020/12/08 02:48:14;;;;;;;134.05;34.40;;;2.80;99.90;;;;;;5110411;28;20092;-46
2020/12/08 02:50:40;;;;;;;150.73;35.33;;;2.80;99.90;;;;;;5109851;28;20035;-46
2020/12/08 02:53:05;;;;;;;132.68;36.60;;;2.80;99.90;;;;;;5110585;28;20536;-46
2020/12/08 02:55:31;;;;;;;141.75;35.90;;;2.80;99.90;;;;;;5109986;28;20031;-45
2020/12/08 02:57:57;;;;;;;130.02;35.83;;;2.90;99.90;;;;;;5108886;28;20036;-46
2020/12/08 03:00:23;;;;;;;144.45;37.58;;;2.90;99.90;;;;;;5110161;28;20028;-46
2020/12/08 03:02:48;;;;;;;118.50;33.97;;;2.90;99.90;;;;;;5110119;28;20027;-46
2020/12/08 03:05:14;;;;;;;132.43;36.25;;;2.90;99.90;;;;;;5110229;28;20089;-45
2020/12/08 03:07:40;;;;;;;133.40;35.55;;;2.90;99.90;;;;;;5109153;28;20028;-46
2020/12/08 03:10:06;;;;;;;134.32;34.08;;;2.90;99.90;;;;;;5097503;28;20115;-46
2020/12/08 03:12:33;;;;;;;133.68;34.65;;;2.90;99.90;;;;;;5089463;28;20109;-45
2020/12/08 03:14:58;;;;;;;129.75;34.60;;;2.90;99.90;;;;;;5089617;27;20119;-46
2020/12/08 03:17:24;;;;;;;119.50;33.45;;;2.90;99.90;;;;;;5089888;28;20590;-46
2020/12/08 03:19:50;;;;;;;123.00;33.85;;;2.90;99.90;;;;;;5089728;28;20506;-46
2020/12/08 03:22:16;;;;;;;119.18;33.08;;;2.90;99.90;;;;;;5089985;28;20031;-46
2020/12/08 03:24:41;;;;;;;117.05;31.27;;;2.90;99.90;;;;;;5089485;28;20532;-46
2020/12/08 03:27:07;;;;;;;120.68;31.58;;;3.00;99.90;;;;;;5089405;28;20043;-46
2020/12/08 03:29:33;;;;;;;116.25;30.80;;;3.00;99.90;;;;;;5089456;28;20378;-46
2020/12/08 03:31:58;;;;;;;102.35;30.10;;;2.90;99.90;;;;;;5089368;28;20481;-47
2020/12/08 03:34:25;;;;;;;92.65;26.70;;;2.80;99.90;;;;;;5088274;28;20032;-45
2020/12/08 03:36:51;;;;;;;107.15;29.77;;;2.90;99.90;;;;;;5089103;28;20086;-46
2020/12/08 03:39:17;;;;;;;117.78;30.77;;;2.90;99.90;;;;;;5088751;28;20542;-46
2020/12/08 03:41:43;;;;;;;130.43;31.88;;;2.90;99.90;;;;;;5088551;28;20036;-46
2020/12/08 03:44:09;;;;;;;128.93;31.02;;;2.80;99.90;;;;;;5088951;28;20036;-46
2020/12/08 03:46:36;;;;;;;117.35;30.05;;;2.80;99.90;;;;;;5087888;28;20601;-46
2020/12/08 03:49:01;;;;;;;117.80;32.08;;;2.70;99.90;;;;;;5089218;28;20042;-46
2020/12/08 03:51:27;;;;;;;119.60;30.58;;;2.70;99.90;;;;;;5089523;28;20642;-46
2020/12/08 03:53:53;;;;;;;125.72;32.08;;;2.70;99.90;;;;;;5089319;28;20035;-45
2020/12/08 03:56:19;;;;;;;126.43;31.95;;;2.70;99.90;;;;;;5089063;28;20606;-45
2020/12/08 03:58:46;;;;;;;136.35;34.50;;;2.70;99.90;;;;;;5088539;28;20092;-46
2020/12/08 04:01:19;;;;;;;131.27;31.55;;;2.60;99.90;;;;;;5089078;28;20078;-46
2020/12/08 04:03:50;;;;;;;131.60;31.80;;;2.50;99.90;;;;;;5088603;28;20040;-46
2020/12/08 04:06:18;;;;;;;138.60;31.40;;;2.50;99.90;;;;;;5088881;28;20047;-47
2020/12/08 04:08:45;;;;;;;160.77;32.08;;;2.50;99.90;;;;;;5089603;28;20028;-45
2020/12/08 04:11:12;;;;;;;149.45;34.33;;;2.40;99.90;;;;;;5089157;28;20024;-46
2020/12/08 04:13:38;;;;;;;139.88;32.53;;;2.30;99.90;;;;;;5088434;28;20097;-45
2020/12/08 04:16:04;;;;;;;133.30;31.73;;;2.40;99.90;;;;;;5088814;28;20032;-46
2020/12/08 04:18:29;;;;;;;159.95;33.42;;;2.40;99.90;;;;;;5088602;28;20032;-46
2020/12/08 04:20:55;;;;;;;172.50;33.08;;;2.40;99.90;;;;;;5088947;28;20027;-47
2020/12/08 04:23:22;;;;;;;176.05;34.90;;;2.40;99.90;;;;;;5088978;28;20028;-46
2020/12/08 04:25:49;;;;;;;136.93;32.72;;;2.40;99.90;;;;;;5088522;28;20047;-45
2020/12/08 04:28:15;;;;;;;167.45;33.13;;;2.40;99.90;;;;;;5088740;28;20559;-46
2020/12/08 04:30:41;;;;;;;129.68;30.70;;;2.40;99.90;;;;;;5088573;28;20036;-47
2020/12/08 04:33:07;;;;;;;132.70;32.75;;;2.40;99.90;;;;;;5088296;28;20048;-45
2020/12/08 04:35:32;;;;;;;137.30;33.20;;;2.40;99.90;;;;;;5097293;28;20061;-46
2020/12/08 04:37:58;;;;;;;99.85;29.27;;;2.50;99.90;;;;;;5108952;28;20086;-45
2020/12/08 04:40:25;;;;;;;132.50;35.25;;;2.70;99.90;;;;;;5107863;28;20067;-46
2020/12/08 04:42:55;;;;;;;135.02;34.20;;;2.70;99.90;;;;;;5097398;28;20032;-46
2020/12/08 04:45:22;;;;;;;133.63;33.22;;;2.80;99.90;;;;;;5088653;28;20074;-46
2020/12/08 04:47:48;;;;;;;140.27;33.80;;;2.80;99.90;;;;;;5088470;28;20484;-46
2020/12/08 04:50:16;;;;;;;135.65;33.72;;;2.80;99.90;;;;;;5088421;28;20485;-45
2020/12/08 04:52:43;;;;;;;163.68;35.67;;;2.90;99.90;;;;;;5088373;28;20085;-46
2020/12/08 04:55:09;;;;;;;144.07;35.47;;;2.90;99.90;;;;;;5088854;28;20028;-46
2020/12/08 04:57:35;;;;;;;182.30;38.20;;;2.90;99.90;;;;;;5088909;28;20024;-46
2020/12/08 05:00:09;;;;;;;176.07;38.33;;;2.90;99.90;;;;;;5088273;28;20644;-46
2020/12/08 05:02:49;;;;;;;177.00;35.17;;;3.00;99.90;;;;;;5087227;28;20036;-46
2020/12/08 05:05:16;;;;;;;183.23;37.85;;;3.00;99.90;;;;;;5091949;28;20122;-46
2020/12/08 05:07:42;;;;;;;181.20;37.63;;;3.00;99.90;;;;;;5086833;28;20390;-46
2020/12/08 05:10:08;;;;;;;178.88;39.15;;;3.10;99.90;;;;;;5090777;28;20039;-46
2020/12/08 05:12:34;;;;;;;199.70;40.13;;;3.20;99.90;;;;;;5092135;28;20032;-45
2020/12/08 05:15:00;;;;;;;217.00;41.78;;;3.10;99.90;;;;;;5092609;28;20048;-46
2020/12/08 05:17:27;;;;;;;230.32;43.05;;;3.20;99.90;;;;;;5092162;28;20112;-45
2020/12/08 05:20:05;;;;;;;203.65;40.42;;;3.20;99.90;;;;;;5091981;28;20028;-46
2020/12/08 05:22:31;;;;;;;209.35;41.05;;;3.30;99.90;;;;;;5092072;28;20028;-47
2020/12/08 05:25:18;;;;;;;200.48;40.28;;;3.20;99.90;;;;;;5092179;28;20040;-47
2020/12/08 05:27:45;;;;;;;181.80;41.20;;;3.30;99.90;;;;;;5091737;28;20107;-47
2020/12/08 05:30:11;;;;;;;206.23;39.20;;;3.30;99.90;;;;;;5091528;28;20036;-46
2020/12/08 05:32:41;;;;;;;194.15;39.40;;;3.30;99.90;;;;;;5090414;28;20075;-47
2020/12/08 05:35:12;;;;;;;186.23;41.33;;;3.40;99.90;;;;;;5091635;28;20055;-46
2020/12/08 05:37:43;;;;;;;199.98;41.60;;;3.40;99.90;;;;;;5091562;28;20048;-46
2020/12/08 05:40:23;;;;;;;196.45;41.38;;;3.40;99.90;;;;;;5089395;28;20047;-46
2020/12/08 05:42:51;;;;;;;230.70;44.75;;;3.40;99.90;;;;;;5090294;28;20036;-46
2020/12/08 05:45:21;;;;;;;179.38;39.47;;;3.40;99.90;;;;;;5090518;28;20039;-46
2020/12/08 05:47:57;;;;;;;198.48;40.78;;;3.40;99.90;;;;;;5089836;27;20028;-47
2020/12/08 05:50:25;;;;;;;204.32;42.17;;;3.50;99.90;;;;;;5090339;28;20024;-46
2020/12/08 05:52:54;;;;;;;231.52;43.38;;;3.40;99.90;;;;;;5090402;28;20063;-46
2020/12/08 05:55:22;;;;;;;182.90;38.60;;;3.40;99.90;;;;;;5090531;28;20434;-46
2020/12/08 05:57:49;;;;;;;214.43;45.15;;;3.40;99.90;;;;;;5099311;28;20028;-45
2020/12/08 06:00:26;;;;;;;206.13;42.35;;;3.40;99.90;;;;;;5110654;28;20039;-46
2020/12/08 06:02:53;;;;;;;209.32;44.20;;;3.40;99.90;;;;;;5093874;27;20028;-45
2020/12/08 06:05:31;;;;;;;220.02;43.42;;;3.50;99.90;;;;;;5089957;28;20584;-46
2020/12/08 06:07:58;;;;;;;219.10;44.33;;;3.40;99.90;;;;;;5099394;28;20023;-46
2020/12/08 06:10:24;;;;;;;206.93;41.70;;;3.40;99.90;;;;;;5109856;28;20042;-46
2020/12/08 06:12:59;;;;;;;202.30;43.55;;;3.40;99.90;;;;;;5109660;28;20034;-46
2020/12/08 06:15:26;;;;;;;189.60;40.72;;;3.60;99.90;;;;;;5104149;28;20054;-45
2020/12/08 06:17:53;;;;;;;194.57;42.53;;;3.50;99.90;;;;;;5103422;28;20473;-46
2020/12/08 06:20:19;;;;;;;190.65;42.65;;;3.50;99.90;;;;;;5108895;28;20032;-45
2020/12/08 06:23:14;;;;;;;205.45;41.90;;;3.60;99.90;;;;;;5108497;28;20045;-46
2020/12/08 06:25:41;;;;;;;176.73;41.45;;;3.50;99.90;;;;;;5085992;28;20124;-47
2020/12/08 06:28:06;;;;;;;202.18;43.65;;;3.40;99.90;;;;;;5097814;28;20059;-46
2020/12/08 06:30:38;;;;;;;153.73;39.70;;;3.40;99.90;;;;;;5098790;28;20026;-46
2020/12/08 06:33:04;;;;;;;158.60;37.90;;;3.50;99.90;;;;;;5099930;28;20016;-47
2020/12/08 06:35:33;;;;;;;166.95;41.47;;;3.50;99.90;;;;;;5109169;28;20386;-46
2020/12/08 06:38:01;;;;;;;155.85;38.67;;;3.60;99.90;;;;;;5108046;28;20477;-46
2020/12/08 06:40:27;;;;;;;181.40;40.90;;;3.50;99.90;;;;;;5106680;28;20578;-46
2020/12/08 06:42:53;;;;;;;146.90;36.92;;;3.50;99.90;;;;;;5101137;28;20111;-46
2020/12/08 06:45:24;;;;;;;145.52;35.92;;;3.50;99.90;;;;;;5088066;28;20051;-46
2020/12/08 06:47:51;;;;;;;180.50;40.75;;;3.50;99.90;;;;;;5097573;28;20746;-47
2020/12/08 06:50:28;;;;;;;166.10;40.00;;;3.60;99.90;;;;;;5108655;28;20050;-45
2020/12/08 06:53:03;;;;;;;155.57;37.85;;;3.50;99.90;;;;;;5108347;28;20024;-46
2020/12/08 06:55:41;;;;;;;148.98;38.60;;;3.50;99.90;;;;;;5108910;28;20054;-46
2020/12/08 06:58:07;;;;;;;148.43;37.33;;;3.50;99.90;;;;;;5100937;28;20507;-45
2020/12/08 07:00:32;;;;;;;141.43;37.05;;;3.50;99.90;;;;;;5093952;28;20494;-46
2020/12/08 07:03:00;;;;;;;145.48;37.50;;;3.50;99.90;;;;;;5101564;28;20036;-46
2020/12/08 07:05:28;;;;;;;140.85;36.13;;;3.50;99.90;;;;;;5096432;28;20040;-46
2020/12/08 07:07:57;;;;;;;141.73;36.78;;;3.50;99.90;;;;;;5099544;28;20202;-45
2020/12/08 07:10:23;;;;;;;144.90;36.20;;;3.40;99.90;;;;;;5096373;28;20076;-45
2020/12/08 07:12:50;;;;;;;134.35;35.53;;;3.50;99.90;;;;;;5104559;28;20365;-46
2020/12/08 07:15:18;;;;;;;134.95;36.40;;;3.50;99.90;;;;;;5096136;28;20034;-46
2020/12/08 07:17:44;;;;;;;141.35;36.38;;;3.50;99.90;;;;;;5099005;28;20016;-44
2020/12/08 07:20:13;;;;;;;147.05;37.15;;;3.50;99.90;;;;;;5095024;28;20027;-47
2020/12/08 07:22:42;;;;;;;147.50;38.13;;;3.40;99.90;;;;;;5095874;28;20435;-45
2020/12/08 07:25:10;;;;;;;163.13;37.83;;;3.40;99.90;;;;;;5088277;28;20036;-45
2020/12/08 07:27:40;;;;;;;154.20;37.17;;;3.40;99.90;;;;;;5093439;28;20061;-45
2020/12/08 07:30:05;;;;;;;150.93;37.75;;;3.30;99.90;;;;;;5092530;28;20046;-45
2020/12/08 07:32:31;;;;;;;129.82;35.63;;;3.30;99.90;;;;;;5093333;28;20040;-44
2020/12/08 07:34:57;;;;;;;126.88;36.40;;;3.40;99.90;;;;;;5096357;28;20036;-44
2020/12/08 07:37:26;;;;;;;118.38;32.88;;;3.40;99.90;;;;;;5091842;28;20134;-44
2020/12/08 07:39:53;;;;;;;102.45;30.10;;;3.40;99.90;;;;;;5107259;28;20505;-44
2020/12/08 07:42:19;;;;;;;105.63;30.70;;;3.40;99.90;;;;;;5097533;28;20032;-44
2020/12/08 07:45:01;;;;;;;99.85;29.60;;;3.40;99.90;;;;;;5091772;28;20040;-45
2020/12/08 07:47:27;;;;;;;111.53;33.00;;;3.40;99.90;;;;;;5092675;28;20161;-45
2020/12/08 07:49:52;;;;;;;109.35;31.05;;;3.40;99.90;;;;;;5107063;28;20111;-45
2020/12/08 07:52:18;;;;;;;120.47;34.45;;;3.30;99.90;;;;;;5101318;28;20057;-45
2020/12/08 07:54:45;;;;;;;128.45;35.50;;;3.40;99.90;;;;;;5090879;28;20102;-45
2020/12/08 07:57:11;;;;;;;132.60;34.75;;;3.40;99.90;;;;;;5089681;28;20023;-45
2020/12/08 07:59:38;;;;;;;134.27;36.58;;;3.40;99.90;;;;;;5100591;28;20034;-45
2020/12/08 08:02:03;;;;;;;112.22;31.33;;;3.40;99.90;;;;;;5104347;28;20027;-45
2020/12/08 08:04:30;;;;;;;107.80;32.38;;;3.50;99.90;;;;;;5070043;28;20088;-46
2020/12/08 08:06:56;;;;;;;112.93;33.38;;;3.50;99.90;;;;;;5103053;28;20084;-45
2020/12/08 08:09:22;;;;;;;122.03;34.92;;;3.40;99.90;;;;;;5090056;28;20424;-45
2020/12/08 08:11:48;;;;;;;114.85;33.35;;;3.40;99.90;;;;;;5085035;28;20085;-46
2020/12/08 08:14:14;;;;;;;118.20;34.65;;;3.50;99.90;;;;;;5084898;28;20042;-45
2020/12/08 08:16:39;;;;;;;123.88;35.30;;;3.50;99.90;;;;;;5092318;28;20233;-45
2020/12/08 08:19:05;;;;;;;116.00;34.83;;;3.60;99.90;;;;;;5089085;28;20024;-45
2020/12/08 08:21:31;;;;;;;112.72;33.88;;;3.60;99.90;;;;;;5088308;28;20046;-45
2020/12/08 08:24:00;;;;;;;112.30;34.00;;;3.50;99.90;;;;;;5102305;28;20034;-45
2020/12/08 08:26:27;;;;;;;122.13;34.75;;;3.60;99.90;;;;;;5096111;28;20085;-45
2020/12/08 08:28:53;;;;;;;100.22;33.00;;;3.60;99.90;;;;;;5094308;28;20055;-45
2020/12/08 08:31:18;;;;;;;92.95;30.45;;;3.70;99.90;;;;;;5091596;28;20179;-45
2020/12/08 08:33:44;;;;;;;103.75;31.52;;;3.60;99.90;;;;;;5086578;28;20043;-45
2020/12/08 08:36:10;;;;;;;111.53;32.30;;;3.60;99.90;;;;;;5084883;28;20040;-45
2020/12/08 08:38:35;;;;;;;92.32;30.65;;;3.60;99.90;;;;;;5084917;28;20074;-45
2020/12/08 08:41:01;;;;;;;86.88;27.90;;;3.70;99.90;;;;;;5086763;28;20347;-45
2020/12/08 08:43:27;;;;;;;88.45;28.40;;;3.70;99.90;;;;;;5087540;28;20028;-45
2020/12/08 08:45:54;;;;;;;101.35;31.88;;;3.70;99.90;;;;;;5089243;28;20044;-45
2020/12/08 08:48:23;;;;;;;97.95;31.55;;;3.80;99.90;;;;;;5092613;28;20585;-45
2020/12/08 08:50:50;;;;;;;104.78;33.58;;;3.80;99.90;;;;;;5091459;27;20713;-45
2020/12/08 08:53:15;;;;;;;112.57;34.22;;;3.90;99.90;;;;;;5089328;28;20192;-45
2020/12/08 08:55:41;;;;;;;101.32;31.90;;;3.90;99.90;;;;;;5087426;28;20107;-45
2020/12/08 08:58:07;;;;;;;105.00;31.45;;;4.00;99.90;;;;;;5091830;28;20366;-45
2020/12/08 09:00:32;;;;;;;110.07;32.75;;;4.00;99.90;;;;;;5098145;28;20062;-45
2020/12/08 09:02:59;;;;;;;116.53;33.83;;;4.10;99.90;;;;;;5107671;27;20031;-45
2020/12/08 09:05:25;;;;;;;121.70;35.40;;;4.10;99.90;;;;;;5097363;28;20055;-44
2020/12/08 09:07:52;;;;;;;113.70;34.22;;;4.10;99.90;;;;;;5105827;28;20421;-45
2020/12/08 09:10:20;;;;;;;109.57;34.05;;;4.20;99.90;;;;;;5094533;27;20036;-45
2020/12/08 09:12:48;;;;;;;104.13;32.67;;;4.20;99.90;;;;;;5096382;28;20077;-44
2020/12/08 09:15:15;;;;;;;104.15;32.00;;;4.20;99.90;;;;;;5096295;27;20722;-44
2020/12/08 09:17:41;;;;;;;93.68;30.75;;;4.30;99.90;;;;;;5096722;28;20120;-45
2020/12/08 09:20:07;;;;;;;99.63;31.63;;;4.40;99.90;;;;;;5093420;28;20118;-45
2020/12/08 09:22:32;;;;;;;90.57;30.85;;;4.30;99.90;;;;;;5095383;27;20466;-46
2020/12/08 09:24:58;;;;;;;88.75;31.08;;;4.30;99.90;;;;;;5096992;27;20655;-46
2020/12/08 09:27:24;;;;;;;73.60;27.88;;;4.50;99.90;;;;;;5097933;28;20028;-44
2020/12/08 09:29:50;;;;;;;71.38;27.98;;;4.50;99.90;;;;;;5096530;28;20036;-45
2020/12/08 09:32:16;;;;;;;81.43;30.05;;;4.60;99.90;;;;;;5097905;28;20034;-47
2020/12/08 09:34:42;;;;;;;80.85;29.10;;;4.70;99.90;;;;;;5097319;28;20107;-45
2020/12/08 09:37:07;;;;;;;76.90;28.55;;;4.70;99.90;;;;;;5087590;28;20048;-45
2020/12/08 09:39:34;;;;;;;79.57;29.60;;;4.60;99.90;;;;;;5088775;28;20032;-45
2020/12/08 09:42:00;;;;;;;68.30;28.65;;;4.60;99.90;;;;;;5089088;27;20039;-45
2020/12/08 09:44:26;;;;;;;66.93;28.13;;;4.70;99.90;;;;;;5108868;28;20096;-44
2020/12/08 09:46:52;;;;;;;77.15;28.30;;;4.70;99.90;;;;;;5107351;28;20039;-45
2020/12/08 09:49:19;;;;;;;75.03;28.33;;;4.80;99.90;;;;;;5108798;28;20035;-45
2020/12/08 09:51:45;;;;;;;64.75;26.52;;;4.70;99.90;;;;;;5109257;28;20485;-45
2020/12/08 09:54:10;;;;;;;72.35;28.23;;;4.70;99.90;;;;;;5108490;28;20032;-45
2020/12/08 09:56:36;;;;;;;74.93;28.00;;;4.80;99.90;;;;;;5108178;28;20043;-45
2020/12/08 09:59:02;;;;;;;78.43;28.70;;;4.70;99.90;;;;;;5108764;28;20020;-45
2020/12/08 10:01:32;;;;;;;74.45;27.65;;;4.70;99.90;;;;;;5109706;28;20092;-45
2020/12/08 10:03:59;;;;;;;70.32;25.90;;;4.60;99.90;;;;;;5109259;28;20494;-45
2020/12/08 10:06:25;;;;;;;80.30;27.75;;;4.60;99.90;;;;;;5109644;28;20039;-45
2020/12/08 10:08:54;;;;;;;69.38;26.83;;;4.50;99.90;;;;;;5109866;28;20039;-45
2020/12/08 10:11:21;;;;;;;75.15;29.65;;;4.50;99.90;;;;;;5109047;28;20023;-45
2020/12/08 10:13:47;;;;;;;82.85;31.88;;;4.40;99.90;;;;;;5108829;28;20405;-45
2020/12/08 10:16:21;;;;;;;74.03;29.35;;;4.40;99.90;;;;;;5109099;28;20108;-45
2020/12/08 10:18:48;;;;;;;77.63;29.02;;;4.40;99.90;;;;;;5108464;28;20134;-47
2020/12/08 10:21:18;;;;;;;75.00;28.13;;;4.50;99.90;;;;;;5100786;28;20028;-45
2020/12/08 10:23:43;;;;;;;71.72;28.08;;;4.60;99.90;;;;;;5102926;28;20121;-45
2020/12/08 10:26:10;;;;;;;73.53;28.75;;;4.60;99.90;;;;;;5092632;27;20754;-46
2020/12/08 10:28:36;;;;;;;72.70;27.50;;;4.70;99.90;;;;;;5103839;28;20036;-45
2020/12/08 10:31:02;;;;;;;70.68;27.02;;;4.80;99.90;;;;;;5109225;28;20042;-46
2020/12/08 10:33:28;;;;;;;77.00;29.40;;;4.80;99.90;;;;;;5108713;28;20512;-46
2020/12/08 10:35:54;;;;;;;69.85;27.05;;;4.80;99.90;;;;;;5105297;28;20113;-45
2020/12/08 10:38:19;;;;;;;68.85;26.58;;;4.80;99.90;;;;;;5100924;28;20052;-46
2020/12/08 10:40:45;;;;;;;69.25;24.92;;;4.80;99.90;;;;;;5108765;28;20031;-46
2020/12/08 10:43:11;;;;;;;70.00;26.00;;;4.80;99.90;;;;;;5108810;28;20035;-45
2020/12/08 10:45:36;;;;;;;63.92;24.73;;;4.90;99.90;;;;;;5109224;28;20058;-46
2020/12/08 10:48:02;;;;;;;72.22;27.25;;;4.90;99.90;;;;;;5108523;28;20054;-45
2020/12/08 10:50:28;;;;;;;79.40;28.67;;;5.00;99.90;;;;;;5109287;28;20057;-45
2020/12/08 10:52:53;;;;;;;72.47;27.00;;;5.10;99.90;;;;;;5108335;28;20827;-47
2020/12/08 10:55:19;;;;;;;69.65;26.10;;;5.30;99.90;;;;;;5108216;28;20028;-45
2020/12/08 10:57:45;;;;;;;63.33;26.10;;;5.30;99.90;;;;;;5108393;28;20370;-45
2020/12/08 11:00:11;;;;;;;65.55;27.50;;;5.50;99.90;;;;;;5108526;28;20042;-45
2020/12/08 11:02:36;;;;;;;62.08;26.58;;;5.80;99.90;;;;;;5108435;28;20296;-45
2020/12/08 11:05:05;;;;;;;53.20;26.30;;;6.00;99.90;;;;;;5108579;28;20089;-46
2020/12/08 11:07:31;;;;;;;59.83;28.40;;;6.20;99.90;;;;;;5108745;28;20033;-46
2020/12/08 11:09:56;;;;;;;55.55;24.65;;;6.30;99.90;;;;;;5108023;28;20470;-45
2020/12/08 11:12:22;;;;;;;59.75;26.38;;;6.40;99.90;;;;;;5107816;28;20028;-46
2020/12/08 11:14:48;;;;;;;52.47;25.70;;;6.50;99.90;;;;;;5108109;28;20039;-45
2020/12/08 11:17:13;;;;;;;57.65;24.33;;;6.50;99.90;;;;;;5107855;28;20030;-45
2020/12/08 11:19:39;;;;;;;56.45;25.73;;;6.30;99.90;;;;;;5093915;28;20211;-45
2020/12/08 11:22:06;;;;;;;61.08;25.45;;;6.00;99.90;;;;;;5104364;28;20114;-46
2020/12/08 11:24:31;;;;;;;57.85;25.58;;;5.80;99.90;;;;;;5100785;28;20052;-45
2020/12/08 11:26:57;;;;;;;64.88;26.17;;;5.80;99.90;;;;;;5093273;28;20478;-46
2020/12/08 11:29:24;;;;;;;58.95;25.40;;;5.70;99.90;;;;;;5100048;28;20046;-45
2020/12/08 11:31:52;;;;;;;64.03;26.67;;;5.70;99.90;;;;;;5096653;28;20282;-45
2020/12/08 11:34:18;;;;;;;71.25;28.52;;;5.60;99.90;;;;;;5098170;28;20181;-47
2020/12/08 11:36:44;;;;;;;68.55;28.50;;;5.60;99.90;;;;;;5102490;28;20053;-45
2020/12/08 11:39:10;;;;;;;66.30;29.25;;;5.70;99.90;;;;;;5105029;28;20027;-46
2020/12/08 11:41:41;;;;;;;62.20;26.08;;;5.90;99.90;;;;;;5096791;28;20050;-46
2020/12/08 11:44:07;;;;;;;61.42;26.42;;;5.90;99.90;;;;;;5101474;28;20089;-45
2020/12/08 11:46:33;;;;;;;63.92;25.92;;;5.90;99.90;;;;;;5099071;28;20127;-46
2020/12/08 11:48:59;;;;;;;62.47;27.67;;;5.80;99.90;;;;;;5106287;28;20099;-46
2020/12/08 11:51:26;;;;;;;66.43;27.88;;;5.80;99.90;;;;;;5105524;28;20050;-46
2020/12/08 11:53:52;;;;;;;63.40;27.63;;;6.00;99.90;;;;;;5109014;27;20028;-46
2020/12/08 11:56:18;;;;;;;62.05;26.83;;;6.10;99.90;;;;;;5096201;28;20042;-46
2020/12/08 11:58:44;;;;;;;59.67;25.52;;;6.20;99.90;;;;;;5091456;28;20122;-45
2020/12/08 12:01:09;;;;;;;59.17;25.98;;;6.30;99.90;;;;;;5099822;28;20036;-46
2020/12/08 12:03:35;;;;;;;57.20;25.23;;;6.30;99.90;;;;;;5090288;28;20059;-46
2020/12/08 12:06:01;;;;;;;55.25;25.75;;;6.40;99.90;;;;;;5094611;28;20047;-45
2020/12/08 12:08:27;;;;;;;58.00;25.02;;;6.50;99.90;;;;;;5092123;28;20122;-45
2020/12/08 12:10:52;;;;;;;55.28;25.13;;;6.60;99.90;;;;;;5088207;28;20040;-46
2020/12/08 12:13:18;;;;;;;47.97;23.50;;;6.80;99.90;;;;;;5099562;28;20035;-46
2020/12/08 12:15:43;;;;;;;50.40;23.65;;;7.20;99.90;;;;;;5093232;28;20156;-46
2020/12/08 12:18:09;;;;;;;54.17;24.17;;;7.50;99.90;;;;;;5092182;28;20126;-46
2020/12/08 12:20:35;;;;;;;52.28;23.75;;;7.40;99.90;;;;;;5092887;28;20035;-46
2020/12/08 12:23:00;;;;;;;52.13;23.85;;;7.30;99.90;;;;;;5105420;28;20031;-46
2020/12/08 12:25:26;;;;;;;47.72;22.98;;;7.60;99.90;;;;;;5082184;28;20078;-46
2020/12/08 12:27:52;;;;;;;51.72;24.05;;;8.00;99.90;;;;;;5113441;27;20035;-46
2020/12/08 12:30:18;;;;;;;51.75;23.45;;;8.20;99.90;;;;;;5106388;27;20039;-47